Cape Wrath, United Kingdom
Current Conditions -  °F | °C
As of 10:20 AM on Sunday 26 Oct 2014 (Local Time) from EGPO Reporting Station
Rain Showers Rain Showers  
Wind Chill: 52°   Ceiling: Unl
Heat Index: 52°   Visibility: 6mi
Dew Point: 46°   Wind: 32mph
Humidity: 82%   Direction: 220°SW
Pressure: 29.29"   Gusts: 46mph
Location:  58.83°N, 5.33°W
Report Text: EGPO 260920Z AUTO 22028G40KT 9999 -SHRA FEW027/// SCT036/// 11/08 Q0992
Loading
Personal Weather Stations






























Interactive Weather Map
Tropical Storm Tracking
New forecast layout! Learn more

10-Day Weather Forecast

Advertisements
Track Severe Weather on mobile